Terminal Aerodrome Forecast
Issued by NWS

Home | Current Version | Previous Version | Text Only | Print | Product List | Glossary On
Versions: 1 2 3 4 5 6 7 8 9 10 11 12 13 14
000
FTUS42 TJSJ 210006 RRA
TAFJBQ
TAF
TJBQ 210006Z 2100/2124 25030G50KT 3SM SHRA SCT015 BKN025 BKN060
     FM210800 19025G40KT 3SM SHRA SCT015 BKN025
     FM211700 18015G30KT P6SM SHRA SCT020 BKN030
      AMD NOT SKED=

USA.gov is the U.S. government's official web portal to all federal, state and local government web resources and services.